createdAt,value
2017-10-23T00:00:54.066Z,13.53
2017-10-23T00:02:04.470Z,13.62
2017-10-23T00:03:14.947Z,13.62
2017-10-23T00:04:25.351Z,13.6
2017-10-23T00:05:35.735Z,13.57
2017-10-23T00:06:45.812Z,13.54
2017-10-23T00:07:57.260Z,13.55
2017-10-23T00:09:07.701Z,13.62
2017-10-23T00:10:18.118Z,13.58
2017-10-23T00:11:27.541Z,13.54
2017-10-23T00:12:37.940Z,13.58
2017-10-23T00:13:48.011Z,13.47
2017-10-23T00:14:58.412Z,13.6
2017-10-23T00:16:08.480Z,13.62
2017-10-23T00:17:18.900Z,13.57
2017-10-23T00:18:29.315Z,13.5
2017-10-23T00:19:39.693Z,13.5
2017-10-23T00:21:04.393Z,13.53
2017-10-23T00:22:14.801Z,13.5
2017-10-23T00:23:25.212Z,13.48
2017-10-23T00:24:35.634Z,13.47
2017-10-23T00:25:45.718Z,13.36
2017-10-23T00:26:56.159Z,13.29
2017-10-23T00:28:06.565Z,13.4
2017-10-23T00:29:17.675Z,13.29
2017-10-23T00:30:27.737Z,13.28
2017-10-23T00:31:38.130Z,13.35
2017-10-23T00:32:48.264Z,13.36
2017-10-23T00:33:58.697Z,13.37
2017-10-23T00:35:08.772Z,13.25
2017-10-23T00:36:19.184Z,13.31
2017-10-23T00:37:29.606Z,13.21
2017-10-23T00:38:40.024Z,13.21
2017-10-23T00:39:50.101Z,13.25
2017-10-23T00:41:00.655Z,13.21
2017-10-23T00:42:11.058Z,13.1
2017-10-23T00:43:21.467Z,13.13
2017-10-23T00:44:31.545Z,13.14
2017-10-23T00:45:41.607Z,13.16
2017-10-23T00:46:52.024Z,13.16
2017-10-23T00:48:02.099Z,13.24
2017-10-23T00:49:12.499Z,13.19
2017-10-23T00:50:22.944Z,13.14
2017-10-23T00:51:33.364Z,13.2
2017-10-23T00:52:43.764Z,13.17
2017-10-23T00:53:53.839Z,13.11
2017-10-23T00:55:03.908Z,13.17
2017-10-23T00:56:13.984Z,13.17
2017-10-23T00:57:24.091Z,13.17
2017-10-23T00:58:34.499Z,13.17
2017-10-23T00:59:44.588Z,13.17
2017-10-23T01:00:54.995Z,13.14
2017-10-23T01:02:05.400Z,13.17
2017-10-23T01:03:15.456Z,13.31
2017-10-23T01:04:25.863Z,13.19
2017-10-23T01:05:36.261Z,13.25
2017-10-23T01:06:46.322Z,13.27
2017-10-23T01:07:56.375Z,13.2
2017-10-23T01:09:07.462Z,13.27
2017-10-23T01:10:17.849Z,13.27
2017-10-23T01:11:27.933Z,13.31
2017-10-23T01:12:38.008Z,13.27
2017-10-23T01:13:48.418Z,13.27
2017-10-23T01:14:58.819Z,13.2
2017-10-23T01:16:08.888Z,13.24
2017-10-23T01:17:19.297Z,13.28
2017-10-23T01:18:29.035Z,13.24
2017-10-23T01:19:39.131Z,13.28
2017-10-23T01:20:49.537Z,13.24
2017-10-23T01:21:59.960Z,13.2
2017-10-23T01:23:10.352Z,13.27
2017-10-23T01:24:20.744Z,13.36
2017-10-23T01:25:30.881Z,13.37
2017-10-23T01:26:41.290Z,13.29
2017-10-23T01:27:52.509Z,13.36
2017-10-23T01:29:02.913Z,13.36
2017-10-23T01:30:12.984Z,13.32
2017-10-23T01:31:23.804Z,13.28
2017-10-23T01:32:33.879Z,13.31
2017-10-23T01:33:43.958Z,13.36
2017-10-23T01:34:54.378Z,13.27
2017-10-23T01:36:04.801Z,13.29
2017-10-23T01:37:15.248Z,13.31
2017-10-23T01:38:25.659Z,13.36
2017-10-23T01:39:35.745Z,13.35
2017-10-23T01:40:46.148Z,13.32
2017-10-23T01:41:56.549Z,13.32
2017-10-23T01:43:06.960Z,13.35
2017-10-23T01:44:17.369Z,13.39
2017-10-23T01:45:27.435Z,13.42
2017-10-23T01:46:37.831Z,13.32
2017-10-23T01:47:48.233Z,13.42
2017-10-23T01:48:57.961Z,13.32
2017-10-23T01:50:08.360Z,13.42
2017-10-23T01:51:18.428Z,13.36
2017-10-23T01:52:28.552Z,13.39
2017-10-23T01:53:38.614Z,13.27
2017-10-23T01:54:49.011Z,13.32
2017-10-23T01:55:59.404Z,13.29
2017-10-23T01:57:09.803Z,13.28
2017-10-23T01:58:20.223Z,13.29
2017-10-23T01:59:30.293Z,13.24
2017-10-23T02:00:40.701Z,13.19
2017-10-23T02:01:51.102Z,13.14
2017-10-23T02:03:01.530Z,13.14
2017-10-23T02:04:12.394Z,13.14
2017-10-23T02:05:22.814Z,13.09
2017-10-23T02:06:33.222Z,13.11
2017-10-23T02:07:43.625Z,13.13
2017-10-23T02:08:54.027Z,13.09
2017-10-23T02:10:04.428Z,13.1
2017-10-23T02:11:14.829Z,13.13
2017-10-23T02:12:25.224Z,13.11
2017-10-23T02:13:35.622Z,13.13
2017-10-23T02:14:45.687Z,13.09
2017-10-23T02:15:55.753Z,13.13
2017-10-23T02:17:05.874Z,13.13
2017-10-23T02:18:15.943Z,13.14
2017-10-23T02:19:26.337Z,13.16
2017-10-23T02:20:36.415Z,13.16
2017-10-23T02:21:46.818Z,13.17
2017-10-23T02:22:57.669Z,13.14
2017-10-23T02:24:07.769Z,13.16
2017-10-23T02:25:17.845Z,13.19
2017-10-23T02:26:28.251Z,13.17
2017-10-23T02:27:38.661Z,13.14
2017-10-23T02:28:48.751Z,13.13
2017-10-23T02:29:59.152Z,13.16
2017-10-23T02:31:09.571Z,13.14
2017-10-23T02:32:20.005Z,13.17
2017-10-23T02:33:30.405Z,13.16
2017-10-23T02:34:40.785Z,13.11
2017-10-23T02:35:50.843Z,13.19
2017-10-23T02:37:00.925Z,13.19
2017-10-23T02:38:10.987Z,13.19
2017-10-23T02:39:22.042Z,13.16
2017-10-23T02:40:32.116Z,13.17
2017-10-23T02:41:42.515Z,13.21
2017-10-23T02:42:52.909Z,13.19
2017-10-23T02:44:03.305Z,13.19
2017-10-23T02:45:13.421Z,13.17
2017-10-23T02:46:23.827Z,13.16
2017-10-23T02:47:33.909Z,13.19
2017-10-23T02:48:44.303Z,13.2
2017-10-23T02:49:54.702Z,13.24
2017-10-23T02:51:05.193Z,13.21
2017-10-23T02:52:15.604Z,13.21
2017-10-23T02:53:25.689Z,13.2
2017-10-23T02:54:36.091Z,13.19
2017-10-23T02:55:46.152Z,13.2
2017-10-23T02:56:56.552Z,13.21
2017-10-23T02:58:06.646Z,13.16
2017-10-23T02:59:17.058Z,13.2
2017-10-23T03:00:27.147Z,13.24
2017-10-23T03:01:37.229Z,13.25
2017-10-23T03:33:53.340Z,10.95
2017-10-23T03:35:03.751Z,10.91
2017-10-23T03:36:14.161Z,10.98
2017-10-23T03:37:24.262Z,11.05
2017-10-23T03:38:34.305Z,11.16
2017-10-23T03:39:44.707Z,11.18
2017-10-23T03:40:55.115Z,11.33
2017-10-23T03:42:05.182Z,11.35
2017-10-23T03:43:15.576Z,11.48
2017-10-23T03:44:26.199Z,11.67
2017-10-23T03:45:36.303Z,11.81
2017-10-23T03:46:46.709Z,11.86
2017-10-23T03:47:56.770Z,12.01
2017-10-23T03:49:07.168Z,12.18
2017-10-23T03:50:17.238Z,12.22
2017-10-23T03:51:27.653Z,12.38
2017-10-23T03:52:38.048Z,12.51
2017-10-23T03:53:48.113Z,12.58
2017-10-23T03:54:58.522Z,12.59
2017-10-23T03:56:08.936Z,12.65
2017-10-23T03:57:19.368Z,12.73
2017-10-23T03:58:29.745Z,12.74
2017-10-23T03:59:40.164Z,12.81
2017-10-23T04:00:50.237Z,12.74
2017-10-23T04:02:00.636Z,12.94
2017-10-23T04:03:11.233Z,12.89
2017-10-23T04:04:22.547Z,12.89
2017-10-23T04:05:32.288Z,12.99
2017-10-23T04:06:42.689Z,12.98
2017-10-23T04:07:53.077Z,13.01
2017-10-23T04:09:03.541Z,13.01
2017-10-23T04:10:13.934Z,12.99
2017-10-23T04:11:24.019Z,12.99
2017-10-23T04:12:34.460Z,12.95
2017-10-23T04:13:44.554Z,13.02
2017-10-23T04:14:54.958Z,13.01
2017-10-23T04:16:05.373Z,12.99
2017-10-23T04:17:16.014Z,13.01
2017-10-23T04:18:26.425Z,13.02
2017-10-23T04:19:36.824Z,12.94
2017-10-23T04:20:46.931Z,13.01
2017-10-23T04:21:57.329Z,12.98
2017-10-23T04:23:07.413Z,12.98
2017-10-23T04:24:17.829Z,12.99
2017-10-23T04:25:27.896Z,13.09
2017-10-23T04:26:38.340Z,13.07
2017-10-23T04:27:48.745Z,13.07
2017-10-23T04:28:59.151Z,13.09
2017-10-23T04:30:09.546Z,13.11
2017-10-23T04:31:20.990Z,13.03
2017-10-23T04:32:31.127Z,13.1
2017-10-23T04:33:41.526Z,13.01
2017-10-23T04:34:51.908Z,13.07
2017-10-23T04:36:02.318Z,13.07
2017-10-23T04:37:12.728Z,13.06
2017-10-23T04:38:23.167Z,13.06
2017-10-23T04:39:32.898Z,13.09
2017-10-23T04:40:43.300Z,13.1
2017-10-23T04:41:53.731Z,13.06
2017-10-23T04:43:03.796Z,13.02
2017-10-23T04:44:14.191Z,13.1
2017-10-23T04:45:24.283Z,13.07
2017-10-23T04:46:34.671Z,13.1
2017-10-23T04:47:45.080Z,13.01
2017-10-23T04:48:55.155Z,13.03
2017-10-23T04:50:05.275Z,13.03
2017-10-23T04:51:15.697Z,13.02
2017-10-23T04:52:26.098Z,13.01
2017-10-23T04:53:36.504Z,13.09
2017-10-23T04:54:46.932Z,13.02
2017-10-23T04:55:57.342Z,13.09
2017-10-23T04:57:07.778Z,13.03
2017-10-23T04:58:18.182Z,13.02
2017-10-23T04:59:28.243Z,13.07
2017-10-23T05:00:38.666Z,13.01
2017-10-23T05:01:49.081Z,13.02
2017-10-23T05:02:59.142Z,13.02
2017-10-23T05:04:09.556Z,13.01
2017-10-23T05:05:19.968Z,13.02
2017-10-23T05:06:30.384Z,12.98
2017-10-23T05:07:40.790Z,13.03
2017-10-23T05:08:51.212Z,12.99
2017-10-23T05:10:01.279Z,12.96
2017-10-23T05:11:11.706Z,12.98
2017-10-23T05:12:22.102Z,13.01
2017-10-23T05:13:32.244Z,13.01
2017-10-23T05:14:42.637Z,12.94
2017-10-23T05:15:53.033Z,13.06
2017-10-23T05:17:04.299Z,12.96
2017-10-23T05:18:14.797Z,13.02
2017-10-23T05:19:25.292Z,13.01
2017-10-23T05:20:35.708Z,12.91
2017-10-23T05:21:46.111Z,12.94
2017-10-23T05:22:56.496Z,12.86
2017-10-23T05:24:05.901Z,12.92
2017-10-23T05:25:16.030Z,12.98
2017-10-23T05:26:26.487Z,13.1
2017-10-23T05:27:36.913Z,12.91
2017-10-23T05:28:47.353Z,13.03
2017-10-23T05:29:57.766Z,12.99
2017-10-23T05:31:08.206Z,12.98
2017-10-23T05:32:18.628Z,12.98
2017-10-23T05:33:29.028Z,12.98
2017-10-23T05:34:39.426Z,12.98
2017-10-23T05:35:49.813Z,12.98
2017-10-23T05:37:00.276Z,13.06
2017-10-23T05:38:10.011Z,12.98
2017-10-23T05:39:20.394Z,13.03
2017-10-23T05:40:30.489Z,13.03
2017-10-23T05:41:40.558Z,13.07
2017-10-23T05:42:51.021Z,13.07
2017-10-23T05:44:01.424Z,13.02
2017-10-23T05:45:11.832Z,13.06
2017-10-23T05:46:22.225Z,12.99
2017-10-23T05:47:32.312Z,12.99
2017-10-23T05:48:42.767Z,12.95
2017-10-23T05:49:54.171Z,12.98
2017-10-23T05:51:04.377Z,13.07
2017-10-23T05:52:14.447Z,13.06
2017-10-23T05:53:24.851Z,12.98
2017-10-23T05:54:34.592Z,13.09
2017-10-23T05:55:44.674Z,13.06
2017-10-23T05:56:55.072Z,13.07
2017-10-23T05:58:05.164Z,13.07
2017-10-23T05:59:15.238Z,13.07
2017-10-23T06:00:24.972Z,13.07
2017-10-23T06:01:35.393Z,13.02
2017-10-23T06:02:45.796Z,13.06
2017-10-23T06:03:56.184Z,13.01
2017-10-23T06:05:06.593Z,13.06
2017-10-23T06:06:17.065Z,13.07
2017-10-23T06:07:26.815Z,13.09
2017-10-23T06:08:36.893Z,13.03
2017-10-23T06:09:47.270Z,12.99
2017-10-23T06:10:57.678Z,13.01
2017-10-23T06:12:08.092Z,13.03
2017-10-23T06:13:18.488Z,13.06
2017-10-23T06:14:28.557Z,13.1
2017-10-23T06:15:38.636Z,13.1
2017-10-23T06:16:48.696Z,13.07
2017-10-23T06:17:59.150Z,13.13
2017-10-23T06:19:09.560Z,13.17
2017-10-23T06:20:19.965Z,13.21
2017-10-23T06:21:30.067Z,13.28
2017-10-23T06:22:40.490Z,13.27
2017-10-23T06:23:50.881Z,13.27
2017-10-23T06:25:01.012Z,13.35
2017-10-23T06:26:11.428Z,13.39
2017-10-23T06:27:20.842Z,13.36
2017-10-23T06:28:31.231Z,13.47
2017-10-23T06:29:41.686Z,13.5
2017-10-23T06:30:52.085Z,13.47
2017-10-23T06:32:02.166Z,13.58
2017-10-23T06:33:12.225Z,13.53
2017-10-23T06:34:22.631Z,13.55
2017-10-23T06:35:33.077Z,13.57
2017-10-23T06:36:43.307Z,13.58
2017-10-23T06:37:53.709Z,13.58
2017-10-23T06:39:04.111Z,13.62
2017-10-23T06:40:14.519Z,13.55
2017-10-23T06:41:24.963Z,13.6
2017-10-23T06:42:36.213Z,13.62
2017-10-23T06:43:46.274Z,13.65
2017-10-23T06:44:56.349Z,13.65
2017-10-23T06:46:06.428Z,13.65
2017-10-23T06:47:16.886Z,13.79
2017-10-23T06:48:26.633Z,13.84
2017-10-23T06:49:36.713Z,13.88
2017-10-23T06:50:47.145Z,13.87
2017-10-23T06:51:57.239Z,13.91
2017-10-23T06:53:07.685Z,13.9
2017-10-23T06:54:18.123Z,13.91
2017-10-23T06:55:28.443Z,13.93
2017-10-23T06:56:38.852Z,13.88
2017-10-23T06:57:48.917Z,13.93
2017-10-23T06:58:59.346Z,13.91
2017-10-23T07:00:09.760Z,13.86
2017-10-23T07:01:20.167Z,13.91
2017-10-23T07:02:30.240Z,13.86
2017-10-23T07:03:40.645Z,13.91
2017-10-23T07:04:51.036Z,13.94
2017-10-23T07:06:01.099Z,14.02
2017-10-23T07:07:11.182Z,13.95
2017-10-23T07:08:21.607Z,13.95
2017-10-23T07:09:31.704Z,14.01
2017-10-23T07:10:42.656Z,14.01
2017-10-23T07:11:53.058Z,13.95
2017-10-23T07:13:02.789Z,13.97
2017-10-23T07:14:12.860Z,13.97
2017-10-23T07:15:22.270Z,13.97
2017-10-23T07:16:32.674Z,13.93
2017-10-23T07:17:43.082Z,14.08
2017-10-23T07:18:53.485Z,14.06
2017-10-23T07:20:04.041Z,14.11
2017-10-23T07:21:14.364Z,14.06
2017-10-23T07:22:24.765Z,13.99
2017-10-23T07:23:35.166Z,14.01
2017-10-23T07:24:45.608Z,14.02
2017-10-23T07:25:56.016Z,14.11
2017-10-23T07:27:05.760Z,13.99
2017-10-23T07:28:16.167Z,14.01
2017-10-23T07:29:26.599Z,14.03
2017-10-23T07:30:38.360Z,14.11
2017-10-23T07:31:48.438Z,14.06
2017-10-23T07:32:58.829Z,14.13
2017-10-23T07:34:08.963Z,14.19
2017-10-23T07:35:19.025Z,14.21
2017-10-23T07:36:29.426Z,14.21
2017-10-23T07:37:39.161Z,14.16
2017-10-23T07:38:48.582Z,14.3
2017-10-23T07:39:58.646Z,14.26
2017-10-23T07:41:09.033Z,14.44
2017-10-23T07:42:19.441Z,14.53
2017-10-23T07:43:31.179Z,14.53
2017-10-23T07:44:41.284Z,14.59
2017-10-23T07:45:51.355Z,14.53
2017-10-23T07:47:01.453Z,14.64
2017-10-23T07:48:11.973Z,14.67
2017-10-23T07:49:22.405Z,14.63
2017-10-23T07:50:32.819Z,14.69
2017-10-23T07:51:43.284Z,14.67
2017-10-23T07:52:53.341Z,14.64
2017-10-23T07:54:03.763Z,14.71
2017-10-23T07:55:13.853Z,14.79
2017-10-23T07:56:24.262Z,14.82
2017-10-23T07:57:34.715Z,14.77
2017-10-23T07:58:45.134Z,14.82
2017-10-23T07:59:55.530Z,14.77
2017-10-23T08:01:05.612Z,14.77
2017-10-23T08:02:15.685Z,14.74
2017-10-23T08:03:26.105Z,14.77
2017-10-23T08:04:36.507Z,14.71
2017-10-23T08:05:46.904Z,14.7
2017-10-23T08:06:56.976Z,14.69
2017-10-23T08:08:06.735Z,14.67
2017-10-23T08:09:16.804Z,14.7
2017-10-23T08:10:27.208Z,14.67
2017-10-23T08:11:37.295Z,14.7
2017-10-23T08:12:47.698Z,14.7
2017-10-23T08:13:58.113Z,14.67
2017-10-23T08:15:08.538Z,14.71
2017-10-23T08:16:19.162Z,14.64
2017-10-23T08:17:29.602Z,14.69
2017-10-23T08:18:40.027Z,14.71
2017-10-23T08:19:50.121Z,14.7
2017-10-23T08:21:00.559Z,14.7
2017-10-23T08:22:11.198Z,14.66
2017-10-23T08:23:21.830Z,14.69
2017-10-23T08:24:32.257Z,14.74
2017-10-23T08:25:42.679Z,14.7
2017-10-23T08:26:53.083Z,14.7
2017-10-23T08:28:03.165Z,14.67
2017-10-23T08:29:13.560Z,14.63
2017-10-23T08:30:23.972Z,14.7
2017-10-23T08:31:34.361Z,14.66
2017-10-23T08:32:44.133Z,14.59
2017-10-23T08:33:54.778Z,14.74
2017-10-23T08:35:05.388Z,14.67
2017-10-23T08:36:15.444Z,14.6
2017-10-23T08:37:25.867Z,14.69
2017-10-23T08:38:36.000Z,14.69
2017-10-23T08:39:46.395Z,14.69
2017-10-23T08:40:56.502Z,14.66
2017-10-23T08:42:06.573Z,14.67
2017-10-23T08:43:16.977Z,14.67
2017-10-23T08:44:27.048Z,14.74
2017-10-23T08:45:37.469Z,14.69
2017-10-23T08:46:47.884Z,14.7
2017-10-23T08:47:57.631Z,14.63
2017-10-23T08:49:08.065Z,14.7
2017-10-23T08:50:18.531Z,14.57
2017-10-23T08:51:28.933Z,14.7
2017-10-23T08:52:38.680Z,14.6
2017-10-23T08:53:49.091Z,14.61
2017-10-23T08:54:59.477Z,14.64
2017-10-23T08:56:10.180Z,14.67
2017-10-23T08:57:20.840Z,14.66
2017-10-23T08:58:31.680Z,14.63
2017-10-23T08:59:42.018Z,14.59
2017-10-23T09:00:53.837Z,14.66
2017-10-23T09:02:03.902Z,14.56
2017-10-23T09:03:14.355Z,14.63
2017-10-23T09:04:24.084Z,14.51
2017-10-23T09:05:34.171Z,14.41
2017-10-23T09:06:44.232Z,14.41
2017-10-23T09:07:54.645Z,14.24
2017-10-23T09:09:04.714Z,14.23
2017-10-23T09:10:16.471Z,14.2
2017-10-23T09:11:27.544Z,14.09
2017-10-23T09:12:39.769Z,14.09
2017-10-23T09:13:49.533Z,13.94
2017-10-23T09:14:59.937Z,13.93
2017-10-23T09:16:10.016Z,13.83
2017-10-23T09:17:20.419Z,13.76
2017-10-23T09:18:30.815Z,13.72
2017-10-23T09:19:41.236Z,13.6
2017-10-23T09:20:52.087Z,13.6
2017-10-23T09:22:02.496Z,13.6
2017-10-23T09:23:12.916Z,13.5
2017-10-23T09:24:22.987Z,13.55
2017-10-23T09:25:33.060Z,13.54
2017-10-23T09:26:43.458Z,13.58
2017-10-23T09:27:53.874Z,13.5
2017-10-23T09:29:03.944Z,13.54
2017-10-23T09:30:14.323Z,13.48
2017-10-23T09:31:24.788Z,13.51
2017-10-23T09:32:35.212Z,13.65
2017-10-23T09:33:45.630Z,13.55
2017-10-23T09:34:56.040Z,13.62
2017-10-23T09:36:06.465Z,13.63
2017-10-23T09:37:16.874Z,13.72
2017-10-23T09:38:26.949Z,13.66
2017-10-23T09:39:37.374Z,13.78
2017-10-23T09:40:47.808Z,13.81
2017-10-23T09:41:57.205Z,13.79
2017-10-23T09:43:07.287Z,13.93
2017-10-23T09:44:17.354Z,13.93
2017-10-23T09:45:27.915Z,13.97
2017-10-23T09:46:37.992Z,14.03
2017-10-23T09:47:48.405Z,14.08
2017-10-23T09:48:58.957Z,14.09
2017-10-23T09:50:09.367Z,14.23
2017-10-23T09:51:19.763Z,14.2
2017-10-23T09:52:30.175Z,14.19
2017-10-23T09:53:40.600Z,14.27
2017-10-23T09:54:50.994Z,14.31
2017-10-23T09:56:02.645Z,14.3
2017-10-23T09:57:13.034Z,14.33
2017-10-23T09:58:23.434Z,14.3
2017-10-23T09:59:33.906Z,14.52
2017-10-23T10:00:44.353Z,14.48
2017-10-23T10:01:54.764Z,14.52
2017-10-23T10:03:04.840Z,14.59
2017-10-23T10:04:14.929Z,14.69
2017-10-23T10:05:25.342Z,14.6
2017-10-23T10:06:35.766Z,14.67
2017-10-23T10:07:46.192Z,14.66
2017-10-23T10:08:56.586Z,14.69
2017-10-23T10:10:06.664Z,14.71
2017-10-23T10:11:16.769Z,14.79
2017-10-23T10:12:26.849Z,14.77
2017-10-23T10:13:36.933Z,14.79
2017-10-23T10:14:47.335Z,14.9
2017-10-23T10:15:57.750Z,14.93
2017-10-23T10:17:08.152Z,14.89
2017-10-23T10:18:18.605Z,14.77
2017-10-23T10:19:29.011Z,14.8
2017-10-23T10:20:39.443Z,14.69
2017-10-23T10:21:49.530Z,14.67
2017-10-23T10:22:59.619Z,14.67
2017-10-23T10:24:09.679Z,14.57
2017-10-23T10:25:19.752Z,14.57
2017-10-23T10:26:29.801Z,14.28
2017-10-23T10:27:39.894Z,14.27
2017-10-23T10:28:49.967Z,14.28
2017-10-23T10:30:00.437Z,14.08
2017-10-23T10:31:10.855Z,14.06
2017-10-23T10:32:21.263Z,14.05
2017-10-23T10:33:31.331Z,14.11
2017-10-23T10:34:41.756Z,14.08
2017-10-23T10:35:52.232Z,13.95
2017-10-23T10:37:02.639Z,14.01
2017-10-23T10:38:13.044Z,14.02
2017-10-23T10:39:23.444Z,13.91
2017-10-23T10:40:33.858Z,13.99
2017-10-23T10:41:43.920Z,13.94
2017-10-23T10:42:54.342Z,13.93
2017-10-23T10:44:04.749Z,13.93
2017-10-23T10:45:15.181Z,14.02
2017-10-23T10:46:25.657Z,13.91
2017-10-23T10:47:35.733Z,13.93
2017-10-23T10:48:46.542Z,13.79
2017-10-23T10:49:56.627Z,13.76
2017-10-23T10:51:06.684Z,13.78
2017-10-23T10:52:16.756Z,13.75
2017-10-23T10:53:27.197Z,13.73
2017-10-23T10:54:37.263Z,13.86
2017-10-23T10:55:47.676Z,13.83
2017-10-23T10:56:58.059Z,13.84
2017-10-23T10:58:08.183Z,13.81
2017-10-23T10:59:18.590Z,13.93
2017-10-23T11:00:29.040Z,13.9
2017-10-23T11:01:39.439Z,13.87
2017-10-23T11:02:49.880Z,13.87
2017-10-23T11:03:59.948Z,13.9
2017-10-23T11:05:10.368Z,13.87
2017-10-23T11:06:20.788Z,13.81
2017-10-23T11:07:30.877Z,13.88
2017-10-23T11:08:41.018Z,13.79
2017-10-23T11:09:51.429Z,13.75
2017-10-23T11:11:01.822Z,13.86
2017-10-23T11:12:12.246Z,13.86
2017-10-23T11:13:22.670Z,13.87
2017-10-23T11:14:33.082Z,13.94
2017-10-23T11:15:43.486Z,13.9
2017-10-23T11:16:53.622Z,13.84
2017-10-23T11:18:04.021Z,13.93
2017-10-23T11:19:14.441Z,13.84
2017-10-23T11:20:24.833Z,13.87
2017-10-23T11:21:35.246Z,13.91
2017-10-23T11:22:45.692Z,13.83
2017-10-23T11:23:55.765Z,13.81
2017-10-23T11:25:06.176Z,13.94
2017-10-23T11:26:15.923Z,13.83
2017-10-23T11:27:26.337Z,13.84
2017-10-23T11:28:36.473Z,13.91
2017-10-23T11:29:46.572Z,13.88
2017-10-23T11:30:56.969Z,13.88
2017-10-23T11:32:07.390Z,13.97
2017-10-23T11:33:17.794Z,14.03
2017-10-23T11:34:28.251Z,14.06
2017-10-23T11:35:38.667Z,14.06
2017-10-23T11:36:48.762Z,14.06
2017-10-23T11:37:59.209Z,14.13
2017-10-23T11:39:09.631Z,14.06
2017-10-23T11:40:19.793Z,14.06
2017-10-23T11:41:29.959Z,13.99
2017-10-23T11:42:40.405Z,13.93
2017-10-23T11:43:50.909Z,13.88
2017-10-23T11:45:01.506Z,13.81
2017-10-23T11:46:12.805Z,13.9
2017-10-23T11:47:24.215Z,13.91
2017-10-23T11:48:35.201Z,13.95
2017-10-23T11:49:46.007Z,13.93
2017-10-23T11:50:56.482Z,13.87
2017-10-23T11:52:07.889Z,13.78
2017-10-23T11:53:17.933Z,13.75
2017-10-23T11:54:28.126Z,13.78
2017-10-23T11:55:38.642Z,13.75
2017-10-23T11:56:48.736Z,13.73
2017-10-23T11:57:59.203Z,13.73
2017-10-23T11:59:09.304Z,13.72
2017-10-23T12:00:20.432Z,13.72
2017-10-23T12:01:31.074Z,13.68
2017-10-23T12:02:41.171Z,13.62
2017-10-23T12:03:51.643Z,13.63
2017-10-23T12:05:02.080Z,13.58
2017-10-23T12:06:12.500Z,13.55
2017-10-23T12:07:22.914Z,13.63
2017-10-23T12:08:33.400Z,13.63
2017-10-23T12:09:43.905Z,13.58
2017-10-23T12:10:54.437Z,13.58
2017-10-23T12:12:04.932Z,13.6
2017-10-23T12:13:15.384Z,13.58
2017-10-23T12:14:25.802Z,13.54
2017-10-23T12:15:36.277Z,13.5
2017-10-23T12:16:46.777Z,13.5
2017-10-23T12:17:57.288Z,13.47
2017-10-23T12:19:07.525Z,13.36
2017-10-23T12:20:18.013Z,13.36
2017-10-23T12:21:28.494Z,13.42
2017-10-23T12:22:38.936Z,13.31
2017-10-23T12:23:49.354Z,13.27
2017-10-23T12:24:59.452Z,13.28
2017-10-23T12:26:09.562Z,13.29
2017-10-23T12:27:20.056Z,13.16
2017-10-23T12:28:30.547Z,13.16
2017-10-23T12:29:40.972Z,13.24
2017-10-23T12:30:51.536Z,13.2
2017-10-23T12:32:01.961Z,13.19
2017-10-23T12:33:12.099Z,13.14
2017-10-23T12:34:23.198Z,13.19
2017-10-23T12:35:33.610Z,13.21
2017-10-23T12:36:43.694Z,13.2
2017-10-23T12:37:54.109Z,13.28
2017-10-23T12:39:04.231Z,13.31
2017-10-23T12:40:14.303Z,13.29
2017-10-23T12:41:24.371Z,13.32
2017-10-23T12:42:34.768Z,13.35
2017-10-23T12:43:45.173Z,13.32
2017-10-23T12:44:55.261Z,13.4
2017-10-23T12:46:05.362Z,13.44
2017-10-23T12:47:15.746Z,13.39
2017-10-23T12:48:26.169Z,13.35
2017-10-23T12:49:36.575Z,13.32
2017-10-23T12:50:47.059Z,13.37
2017-10-23T12:51:56.796Z,13.32
2017-10-23T12:53:07.204Z,13.36
2017-10-23T12:54:17.291Z,13.29
2017-10-23T12:55:27.372Z,13.32
2017-10-23T12:56:37.773Z,13.37
2017-10-23T12:57:48.188Z,13.31
2017-10-23T12:58:58.617Z,13.42
2017-10-23T13:00:09.032Z,13.37
2017-10-23T13:01:19.499Z,13.35
2017-10-23T13:02:29.920Z,13.45
2017-10-23T13:03:40.365Z,13.36
2017-10-23T13:04:50.759Z,13.36
2017-10-23T13:06:01.178Z,13.32
2017-10-23T13:07:11.593Z,13.36
2017-10-23T13:08:21.665Z,13.32
2017-10-23T13:09:32.123Z,13.39
2017-10-23T13:10:42.513Z,13.35
2017-10-23T13:11:52.614Z,13.47
2017-10-23T13:13:03.206Z,13.37
2017-10-23T13:14:13.753Z,13.36
2017-10-23T13:15:24.429Z,13.39
2017-10-23T13:16:34.872Z,13.44
2017-10-23T13:17:44.937Z,13.48
2017-10-23T13:18:55.345Z,13.45
2017-10-23T13:20:05.793Z,13.36
2017-10-23T13:21:15.864Z,13.36
2017-10-23T13:22:26.290Z,13.36
2017-10-23T13:23:36.695Z,13.36
2017-10-23T13:24:46.809Z,13.37
2017-10-23T13:25:56.927Z,13.36
2017-10-23T13:27:07.357Z,13.42
2017-10-23T13:28:17.759Z,13.39
2017-10-23T13:29:28.185Z,13.32
2017-10-23T13:30:37.968Z,13.36
2017-10-23T13:31:48.435Z,13.48
2017-10-23T13:32:58.858Z,13.35
2017-10-23T13:34:09.260Z,13.4
2017-10-23T13:35:19.672Z,13.35
2017-10-23T13:36:29.849Z,13.36
2017-10-23T13:37:40.304Z,13.35
2017-10-23T13:38:50.720Z,13.27
2017-10-23T13:40:01.130Z,13.35
2017-10-23T13:41:11.564Z,13.4
2017-10-23T13:42:21.988Z,13.35
2017-10-23T13:43:32.078Z,13.36
2017-10-23T13:44:42.535Z,13.39
2017-10-23T13:45:52.617Z,13.32
2017-10-23T13:47:03.058Z,13.39
2017-10-23T13:48:13.149Z,13.35
2017-10-23T13:49:23.612Z,13.36
2017-10-23T13:50:34.024Z,13.37
2017-10-23T13:51:44.431Z,13.36
2017-10-23T13:52:54.505Z,13.35
2017-10-23T13:54:04.905Z,13.36
2017-10-23T13:55:15.369Z,13.39
2017-10-23T13:56:25.800Z,13.4
2017-10-23T13:57:36.226Z,13.36
2017-10-23T13:58:46.652Z,13.5
2017-10-23T13:59:57.059Z,13.44
2017-10-23T14:01:07.538Z,13.47
2017-10-23T14:02:17.647Z,13.42
2017-10-23T14:03:28.073Z,13.45
2017-10-23T14:04:37.827Z,13.45
2017-10-23T14:05:48.276Z,13.36
2017-10-23T14:06:58.754Z,13.35
2017-10-23T14:08:08.826Z,13.35
2017-10-23T14:09:19.284Z,13.37
2017-10-23T14:10:29.697Z,13.42
2017-10-23T14:11:39.791Z,13.35
2017-10-23T14:12:49.871Z,13.21
2017-10-23T14:13:59.968Z,13.25
2017-10-23T14:15:10.373Z,13.25
2017-10-23T14:16:20.811Z,13.2
2017-10-23T14:17:31.220Z,13.13
2017-10-23T14:18:41.725Z,13.2
2017-10-23T14:19:52.133Z,13.13
2017-10-23T14:21:02.579Z,13.14
2017-10-23T14:22:13.007Z,13.11
2017-10-23T14:23:23.348Z,13.13
2017-10-23T14:24:33.837Z,13.02
2017-10-23T14:25:44.259Z,13.02
2017-10-23T14:26:54.687Z,13.02
2017-10-23T14:28:04.785Z,12.91
2017-10-23T14:29:15.218Z,12.86
2017-10-23T14:30:25.671Z,12.92
2017-10-23T14:31:36.124Z,12.86
2017-10-23T14:32:46.556Z,12.84
2017-10-23T14:34:00.320Z,12.91
2017-10-23T14:37:22.549Z,12.8
2017-10-23T14:38:33.444Z,12.78
2017-10-23T14:39:43.517Z,12.81
2017-10-23T14:40:54.020Z,12.8
2017-10-23T14:42:04.471Z,12.77
2017-10-23T14:43:14.879Z,12.86
2017-10-23T14:44:24.635Z,12.81
2017-10-23T14:45:35.049Z,12.89
2017-10-23T14:46:45.464Z,12.91
2017-10-23T14:47:55.617Z,12.71
2017-10-23T14:49:06.050Z,12.92
2017-10-23T14:50:16.141Z,12.73
2017-10-23T14:51:26.248Z,12.91
2017-10-23T14:52:36.694Z,12.88
2017-10-23T14:53:46.826Z,12.89
2017-10-23T14:54:56.920Z,12.81
2017-10-23T14:56:07.361Z,12.81
2017-10-23T14:57:17.787Z,12.89
2017-10-23T14:58:27.902Z,12.89
2017-10-23T14:59:37.994Z,12.86
2017-10-23T15:00:48.420Z,12.91
2017-10-23T15:01:58.836Z,12.89
2017-10-23T15:03:09.249Z,12.86
2017-10-23T15:04:19.344Z,12.91
2017-10-23T15:05:29.762Z,12.91
2017-10-23T15:06:40.174Z,12.91
2017-10-23T15:07:50.589Z,13.02
2017-10-23T15:09:01.008Z,12.92
2017-10-23T15:10:11.451Z,12.91
2017-10-23T15:11:21.978Z,12.91
2017-10-23T15:12:32.429Z,12.91
2017-10-23T15:13:42.535Z,12.92
2017-10-23T15:14:52.661Z,12.89
2017-10-23T15:16:03.081Z,12.84
2017-10-23T15:17:13.474Z,12.91
2017-10-23T15:18:23.882Z,12.92
2017-10-23T15:19:33.984Z,12.89
2017-10-23T15:20:44.398Z,12.89
2017-10-23T15:21:54.489Z,12.88
2017-10-23T15:23:04.568Z,12.94
2017-10-23T15:24:14.975Z,12.99
2017-10-23T15:25:25.071Z,12.91
2017-10-23T15:26:34.827Z,13.02
2017-10-23T15:27:45.253Z,12.99
2017-10-23T15:28:55.387Z,13.02
2017-10-23T15:30:05.149Z,13.06
2017-10-23T15:31:15.840Z,13.01
2017-10-23T15:32:26.260Z,13.02
2017-10-23T15:33:36.666Z,13.06
2017-10-23T15:34:47.134Z,13.1
2017-10-23T15:35:57.231Z,13.11
2017-10-23T15:37:07.681Z,13.14
2017-10-23T15:38:18.121Z,13.14
2017-10-23T15:39:28.543Z,13.16
2017-10-23T15:40:38.985Z,13.21
2017-10-23T15:41:49.057Z,13.27
2017-10-23T15:42:59.497Z,13.2